Time;durP1;ratioP1;P1;durP2;ratioP2;P2;SDS_P1;SDS_P2;PMS_P1;PMS_P2;Temp;Humidity;BMP_temperature;BMP_pressure;BME280_temperature;BME280_humidity;BME280_pressure;Samples;Min_cycle;Max_cycle;Signal;HPM_P1;HPM_P2
2022/05/02 00:00:50;;;;;;;21.45;16.67;;;;;;;9.69;58.96;102008.09;5048649;28;20038;-63
2022/05/02 00:03:16;;;;;;;19.13;16.80;;;;;;;9.64;59.21;102007.41;5030111;28;20475;-63
2022/05/02 00:05:42;;;;;;;18.23;16.33;;;;;;;9.67;59.10;102013.44;5033367;28;20025;-63
2022/05/02 00:08:10;;;;;;;19.42;16.17;;;;;;;9.55;59.08;102014.81;5032046;28;20079;-63
2022/05/02 00:10:35;;;;;;;20.05;17.38;;;;;;;9.37;59.91;102006.72;5033088;28;20048;-63
2022/05/02 00:13:01;;;;;;;19.42;16.30;;;;;;;9.38;60.12;102005.78;5030897;28;20033;-63
2022/05/02 00:15:27;;;;;;;20.67;17.25;;;;;;;9.22;60.23;101981.63;5031015;28;20396;-63
2022/05/02 00:17:59;;;;;;;18.55;16.63;;;;;;;9.37;60.33;101999.63;5031999;28;20108;-63
2022/05/02 00:20:26;;;;;;;19.05;17.02;;;;;;;9.18;60.76;102001.28;5030961;28;20025;-63
2022/05/02 00:22:51;;;;;;;18.13;16.15;;;;;;;9.25;60.82;102003.63;5031469;28;20657;-63
2022/05/02 00:25:17;;;;;;;18.10;15.77;;;;;;;9.31;60.75;101994.56;5029737;28;20018;-63
2022/05/02 00:27:45;;;;;;;18.00;15.63;;;;;;;9.33;60.64;102001.53;5029958;28;20054;-63
2022/05/02 00:30:12;;;;;;;17.50;15.70;;;;;;;9.22;61.13;101997.56;5030826;28;20032;-63
2022/05/02 00:32:38;;;;;;;17.13;15.13;;;;;;;9.27;60.77;101995.59;5031651;28;20448;-63
2022/05/02 00:35:04;;;;;;;18.15;16.30;;;;;;;9.20;61.26;101994.09;5032551;28;20025;-63
2022/05/02 00:37:32;;;;;;;20.13;15.20;;;;;;;9.23;60.94;101986.00;5031644;28;20037;-63
2022/05/02 00:39:58;;;;;;;18.27;15.68;;;;;;;9.20;61.32;101986.13;5031989;28;20029;-63
2022/05/02 00:42:23;;;;;;;16.95;15.25;;;;;;;9.15;61.38;101982.78;5030736;28;20040;-63
2022/05/02 00:44:49;;;;;;;20.00;15.55;;;;;;;9.15;61.20;101980.13;5029744;28;20025;-63
2022/05/02 00:47:20;;;;;;;18.45;16.13;;;;;;;9.13;61.14;101980.22;5029890;28;20053;-63
2022/05/02 00:49:48;;;;;;;16.42;14.73;;;;;;;9.01;61.31;101978.88;5028045;28;20096;-63
2022/05/02 00:52:15;;;;;;;17.58;15.55;;;;;;;8.98;61.46;101984.31;5030371;28;20032;-63
2022/05/02 00:54:42;;;;;;;19.02;16.00;;;;;;;8.82;61.69;101980.50;5028051;28;20036;-63
2022/05/02 00:57:18;;;;;;;17.42;15.55;;;;;;;8.79;61.87;101965.56;5031297;28;20029;-63
2022/05/02 00:59:44;;;;;;;17.40;15.55;;;;;;;8.84;61.80;101982.19;5029512;28;21445;-63
2022/05/02 01:02:12;;;;;;;17.95;15.05;;;;;;;8.67;62.10;101981.06;5030281;28;20026;-63
2022/05/02 01:04:38;;;;;;;17.05;15.35;;;;;;;8.76;62.18;101984.25;5030468;28;20029;-63
2022/05/02 01:07:10;;;;;;;18.75;16.10;;;;;;;8.68;62.17;101985.44;5029320;28;20115;-63
2022/05/02 01:09:42;;;;;;;18.02;16.23;;;;;;;8.71;62.03;101980.06;5032195;28;20021;-63
2022/05/02 01:12:14;;;;;;;17.52;15.05;;;;;;;8.66;62.35;101977.56;5029281;28;20091;-63
2022/05/02 01:14:44;;;;;;;17.63;15.73;;;;;;;8.62;62.56;101979.47;5047576;28;20037;-63
2022/05/02 01:17:12;;;;;;;20.65;15.52;;;;;;;8.63;62.36;101973.22;5045828;28;20570;-63
2022/05/02 01:19:37;;;;;;;19.30;16.70;;;;;;;8.64;62.61;101966.13;5047185;28;20069;-63
2022/05/02 01:22:07;;;;;;;20.98;15.85;;;;;;;8.59;62.67;101966.31;5030470;28;20140;-63
2022/05/02 01:24:40;;;;;;;18.35;15.77;;;;;;;8.59;62.77;101978.72;5029538;28;20052;-63
2022/05/02 01:27:07;;;;;;;19.73;16.23;;;;;;;8.55;62.65;101970.00;5030497;28;20040;-63
2022/05/02 01:29:34;;;;;;;20.38;15.75;;;;;;;8.53;62.63;101965.66;5039610;28;20456;-63
2022/05/02 01:32:08;;;;;;;19.73;15.82;;;;;;;8.44;62.92;101971.31;5033138;28;20025;-63
2022/05/02 01:34:36;;;;;;;20.10;16.13;;;;;;;8.37;62.97;101973.28;5030310;28;20072;-63
2022/05/02 01:37:03;;;;;;;20.10;16.92;;;;;;;8.36;63.05;101960.97;5029377;28;20045;-63
2022/05/02 01:39:29;;;;;;;21.17;16.48;;;;;;;8.39;62.86;101974.13;5030166;28;20033;-63
2022/05/02 01:42:01;;;;;;;19.90;16.98;;;;;;;8.21;63.33;101970.31;5030276;28;20115;-63
2022/05/02 01:44:27;;;;;;;19.73;17.20;;;;;;;8.25;63.40;101965.78;5029583;28;20166;-63
2022/05/02 01:46:53;;;;;;;19.63;16.38;;;;;;;8.23;63.32;101965.81;5030345;28;20033;-63
2022/05/02 01:49:21;;;;;;;20.70;17.27;;;;;;;8.14;63.49;101972.28;5044476;28;20388;-63
2022/05/02 01:51:49;;;;;;;23.23;17.15;;;;;;;8.10;63.86;101970.69;5028937;28;20022;-63
2022/05/02 01:54:15;;;;;;;21.35;17.45;;;;;;;8.01;63.83;101964.84;5030499;28;20037;-63
2022/05/02 01:56:43;;;;;;;24.40;18.08;;;;;;;8.01;64.40;101968.34;5029764;28;20033;-63
2022/05/02 01:59:10;;;;;;;20.58;17.52;;;;;;;7.94;64.19;101962.41;5045136;28;20065;-63
2022/05/02 02:01:35;;;;;;;24.80;18.30;;;;;;;7.97;64.33;101956.13;5029873;28;20548;-63
2022/05/02 02:05:48;;;;;;;20.80;17.75;;;;;;;7.88;64.17;101949.38;5033432;28;20082;-63
2022/05/02 02:06:48;;;;;;;25.45;16.73;;;;;;;7.96;64.17;101949.09;5033610;28;20041;-63
2022/05/02 02:09:16;;;;;;;20.13;17.13;;;;;;;7.87;64.54;101960.00;5032490;28;20155;-63
2022/05/02 02:11:42;;;;;;;20.92;16.60;;;;;;;7.89;64.50;101958.19;5049562;28;20048;-63
2022/05/02 02:14:08;;;;;;;22.88;18.63;;;;;;;7.87;64.35;101958.22;5049524;28;20068;-63
2022/05/02 02:16:33;;;;;;;25.02;17.92;;;;;;;7.83;64.59;101967.19;5033031;28;20481;-63
2022/05/02 02:18:59;;;;;;;21.90;18.45;;;;;;;7.78;64.82;101960.31;5033419;28;20076;-63
2022/05/02 02:21:25;;;;;;;21.15;17.58;;;;;;;7.80;64.43;101959.34;5051341;28;20030;-63
2022/05/02 02:23:53;;;;;;;21.80;18.40;;;;;;;7.74;64.71;101954.28;5033783;28;20493;-63
2022/05/02 02:26:18;;;;;;;20.40;18.23;;;;;;;7.79;64.78;101956.75;5035099;28;20112;-63
2022/05/02 02:28:44;;;;;;;25.17;18.65;;;;;;;7.69;64.93;101957.06;5033485;28;20535;-63
2022/05/02 02:31:10;;;;;;;22.23;17.65;;;;;;;7.65;64.91;101955.44;5035087;28;20044;-63
2022/05/02 02:33:37;;;;;;;24.95;18.50;;;;;;;7.65;65.12;101954.59;5032502;28;20412;-63
2022/05/02 02:36:03;;;;;;;21.95;18.63;;;;;;;7.67;65.02;101952.72;5033648;28;20038;-63
2022/05/02 02:38:29;;;;;;;23.02;18.50;;;;;;;7.68;64.79;101951.84;5034136;28;20489;-63
2022/05/02 02:40:55;;;;;;;24.30;18.08;;;;;;;7.67;64.85;101953.59;5033636;28;20107;-63
2022/05/02 02:43:21;;;;;;;20.50;18.27;;;;;;;7.55;65.25;101950.50;5033842;28;20067;-63
2022/05/02 02:45:46;;;;;;;20.52;18.30;;;;;;;7.54;65.42;101943.47;5048120;28;20036;-63
2022/05/02 02:48:11;;;;;;;21.63;19.27;;;;;;;7.46;65.32;101936.63;5030863;28;20049;-63
2022/05/02 02:50:37;;;;;;;21.90;18.38;;;;;;;7.53;64.98;101945.25;5032893;28;20070;-62
2022/05/02 02:53:02;;;;;;;21.73;18.60;;;;;;;7.51;64.88;101939.13;5034128;28;20029;-63
2022/05/02 02:55:28;;;;;;;21.15;18.83;;;;;;;7.47;65.13;101945.44;5053248;28;20060;-63
2022/05/02 02:57:54;;;;;;;21.10;18.75;;;;;;;7.35;65.57;101932.59;5045120;28;20060;-63
2022/05/02 03:00:21;;;;;;;22.95;18.95;;;;;;;7.27;65.62;101931.06;5032059;28;20112;-62
2022/05/02 03:02:48;;;;;;;23.55;18.98;;;;;;;7.30;65.32;101931.91;5047305;28;20128;-63
2022/05/02 03:08:14;;;;;;;21.70;18.67;;;;;;;7.30;65.55;101923.97;5043014;28;20453;-62
2022/05/02 03:10:40;;;;;;;20.95;18.75;;;;;;;7.23;65.70;101926.78;5031990;28;20033;-63
2022/05/02 03:13:06;;;;;;;24.98;19.83;;;;;;;7.24;65.77;101920.59;5032499;28;20417;-63
2022/05/02 03:15:33;;;;;;;22.13;19.65;;;;;;;7.16;65.43;101922.59;5031999;28;20028;-62
2022/05/02 03:17:59;;;;;;;25.40;20.67;;;;;;;7.12;66.10;101926.28;5049863;28;20381;-63
2022/05/02 03:20:25;;;;;;;21.67;19.40;;;;;;;7.04;66.04;101918.56;5032355;28;20123;-62
2022/05/02 03:22:52;;;;;;;32.25;21.08;;;;;;;7.08;65.96;101921.13;5047525;28;20051;-63
2022/05/02 03:25:18;;;;;;;25.02;20.80;;;;;;;7.03;66.20;101918.63;5048148;28;20037;-62
2022/05/02 03:27:44;;;;;;;27.05;20.20;;;;;;;6.98;66.29;101921.41;5033064;28;20041;-63
2022/05/02 03:30:11;;;;;;;32.13;21.00;;;;;;;6.96;66.60;101920.56;5037488;28;20048;-62
2022/05/02 03:32:37;;;;;;;25.13;20.88;;;;;;;6.93;66.20;101923.31;5037477;28;20028;-62
2022/05/02 03:35:03;;;;;;;25.35;20.90;;;;;;;6.83;66.62;101927.16;5030228;28;20025;-62
2022/05/02 03:37:29;;;;;;;25.90;21.17;;;;;;;6.95;66.50;101924.16;5032068;28;20084;-62
2022/05/02 03:39:55;;;;;;;24.63;21.10;;;;;;;6.93;66.55;101919.81;5031534;28;20075;-63
2022/05/02 03:42:20;;;;;;;22.63;20.13;;;;;;;6.90;66.54;101914.63;5047830;28;20503;-62
2022/05/02 03:44:46;;;;;;;24.52;19.88;;;;;;;6.86;66.46;101915.63;5032739;28;20059;-63
2022/05/02 03:47:12;;;;;;;22.23;18.75;;;;;;;6.83;66.19;101913.94;5032781;28;20542;-63
2022/05/02 03:49:38;;;;;;;24.60;19.08;;;;;;;6.85;66.12;101913.88;5032623;28;20047;-63
2022/05/02 03:52:05;;;;;;;24.77;18.75;;;;;;;6.78;66.43;101916.72;5031653;28;20033;-63
2022/05/02 03:54:31;;;;;;;20.85;18.27;;;;;;;6.77;66.72;101922.06;5030505;28;20033;-62
2022/05/02 03:56:56;;;;;;;20.23;18.08;;;;;;;6.75;66.41;101918.59;5047703;28;20021;-62
2022/05/02 03:59:22;;;;;;;19.30;17.30;;;;;;;6.73;66.12;101926.56;5030139;28;20072;-63
2022/05/02 04:01:48;;;;;;;21.85;17.90;;;;;;;6.67;66.22;101921.44;5032140;28;20028;-63
2022/05/02 04:04:13;;;;;;;20.35;17.42;;;;;;;6.67;66.88;101915.31;5031123;28;20030;-62
2022/05/02 04:06:43;;;;;;;20.48;17.70;;;;;;;6.62;66.95;101914.56;5030797;28;20396;-62
2022/05/02 04:09:09;;;;;;;22.13;18.08;;;;;;;6.65;66.79;101925.94;5045859;28;20033;-62
2022/05/02 04:11:34;;;;;;;20.10;17.80;;;;;;;6.59;66.75;101918.19;5032161;28;20068;-62
2022/05/02 04:14:00;;;;;;;20.30;16.80;;;;;;;6.63;66.11;101919.81;5030987;28;20432;-62
2022/05/02 04:16:25;;;;;;;19.90;17.13;;;;;;;6.62;66.45;101918.09;5047574;28;20029;-62
2022/05/02 04:18:50;;;;;;;20.60;16.48;;;;;;;6.55;67.23;101916.53;5030857;28;20396;-63
2022/05/02 04:21:16;;;;;;;21.60;17.05;;;;;;;6.57;66.74;101918.22;5049000;28;20030;-62
2022/05/02 04:23:42;;;;;;;19.60;16.67;;;;;;;6.52;67.11;101920.13;5030335;28;20057;-62
2022/05/02 04:26:07;;;;;;;21.85;17.23;;;;;;;6.55;66.74;101916.53;5030602;28;20042;-62
2022/05/02 04:28:34;;;;;;;23.95;17.58;;;;;;;6.50;66.97;101910.50;5030652;28;20033;-62
2022/05/02 04:31:02;;;;;;;22.77;16.95;;;;;;;6.51;67.42;101921.03;5032090;28;20029;-62
2022/05/02 04:33:28;;;;;;;19.40;17.40;;;;;;;6.50;67.57;101924.59;5031999;28;20049;-62
2022/05/02 04:35:53;;;;;;;19.60;16.88;;;;;;;6.42;66.71;101923.94;5029925;28;20394;-62
2022/05/02 04:38:19;;;;;;;23.23;17.23;;;;;;;6.37;67.56;101920.56;5030087;28;20599;-62
2022/05/02 04:40:45;;;;;;;22.80;17.98;;;;;;;6.41;67.59;101914.28;5030420;28;20029;-62
2022/05/02 04:43:13;;;;;;;24.27;18.75;;;;;;;6.48;68.14;101912.34;5030616;28;20534;-62
2022/05/02 04:45:39;;;;;;;21.13;18.33;;;;;;;6.48;67.97;101913.22;5014043;28;20473;-62
2022/05/02 04:48:05;;;;;;;20.30;18.08;;;;;;;6.44;67.88;101915.97;5030276;28;20056;-62
2022/05/02 04:50:30;;;;;;;22.80;18.17;;;;;;;6.39;68.41;101915.25;5045295;28;20072;-62
2022/05/02 04:52:56;;;;;;;22.30;19.90;;;;;;;6.44;68.08;101915.97;5031308;28;20036;-62
2022/05/02 04:55:22;;;;;;;26.60;20.13;;;;;;;6.46;68.55;101920.31;5031138;28;20473;-62
2022/05/02 04:57:47;;;;;;;22.02;19.45;;;;;;;6.45;68.78;101920.38;5039450;28;20120;-62
2022/05/02 05:00:16;;;;;;;22.35;19.35;;;;;;;6.50;69.03;101924.59;5043250;28;20108;-62
2022/05/02 05:02:42;;;;;;;25.00;20.13;;;;;;;6.56;68.37;101926.22;5030870;28;20041;-62
2022/05/02 05:05:10;;;;;;;22.80;19.83;;;;;;;6.63;68.60;101933.03;5029940;28;20488;-62
2022/05/02 05:07:37;;;;;;;29.13;21.10;;;;;;;6.67;68.83;101917.94;5030241;28;20037;-62
2022/05/02 05:10:06;;;;;;;24.55;20.42;;;;;;;6.72;68.66;101922.19;5028652;28;20084;-62
2022/05/02 05:12:58;;;;;;;32.13;21.52;;;;;;;6.88;68.36;101924.38;5030934;28;20495;-63
2022/05/02 05:18:20;;;;;;;28.15;22.83;;;;;;;6.91;69.19;101929.56;5030812;28;20432;-62
2022/05/02 05:20:54;;;;;;;32.58;24.55;;;;;;;7.03;69.51;101924.78;5028851;28;20022;-62
2022/05/02 05:23:25;;;;;;;29.10;23.70;;;;;;;7.16;69.42;101930.53;5045938;28;20539;-62
2022/05/02 05:26:10;;;;;;;31.40;24.10;;;;;;;7.21;69.48;101927.78;5032206;28;20480;-62
2022/05/02 05:29:04;;;;;;;30.33;24.55;;;;;;;7.36;69.74;101929.06;5039692;28;20542;-62
2022/05/02 05:31:31;;;;;;;28.98;24.42;;;;;;;7.51;69.81;101931.19;5029872;28;20442;-63
2022/05/02 05:34:58;;;;;;;30.30;24.58;;;;;;;7.56;68.54;101916.03;5045204;28;20052;-62
2022/05/02 05:37:45;;;;;;;29.98;25.23;;;;;;;7.69;69.36;101924.44;4965155;28;20545;-62
2022/05/02 05:40:16;;;;;;;36.10;26.77;;;;;;;7.88;69.03;101922.00;5025282;28;20041;-63
2022/05/02 05:42:45;;;;;;;32.88;26.40;;;;;;;7.91;68.92;101922.78;5045649;28;20377;-63
2022/05/02 05:45:37;;;;;;;35.25;27.23;;;;;;;8.02;69.01;101925.03;5029666;28;20052;-63
2022/05/02 05:48:31;;;;;;;34.47;26.98;;;;;;;8.15;68.88;101923.69;5030065;28;20026;-63
2022/05/02 05:51:23;;;;;;;34.53;28.00;;;;;;;8.35;68.60;101930.06;5030943;28;20033;-62
2022/05/02 05:54:15;;;;;;;32.85;26.10;;;;;;;8.44;68.68;101931.53;5030157;28;20036;-63
2022/05/02 05:56:49;;;;;;;33.65;27.58;;;;;;;8.59;67.84;101931.00;5030389;28;20033;-63
2022/05/02 05:59:27;;;;;;;34.13;27.45;;;;;;;8.78;67.73;101926.69;5043715;28;20064;-63
2022/05/02 06:02:02;;;;;;;34.97;27.20;;;;;;;8.93;67.13;101927.03;5029713;28;20030;-62
2022/05/02 06:04:30;;;;;;;35.22;27.05;;;;;;;9.04;66.85;101930.16;5028787;28;20079;-62
2022/05/02 06:06:58;;;;;;;31.15;26.70;;;;;;;9.20;66.36;101928.59;5030196;28;20036;-63
2022/05/02 06:09:27;;;;;;;35.50;27.13;;;;;;;9.31;66.72;101926.38;5044386;28;20057;-63
2022/05/02 06:11:57;;;;;;;30.42;26.13;;;;;;;9.46;65.97;101929.34;5039117;28;20376;-63
2022/05/02 06:14:25;;;;;;;;;;;;;;;9.56;65.57;101928.06;5029125;28;20021;-63
2022/05/02 06:19:40;;;;;;;32.25;25.60;;;;;;;9.86;64.52;101941.84;5028737;28;20032;-63
2022/05/02 06:22:07;;;;;;;33.30;25.77;;;;;;;9.95;63.82;101935.25;5029043;28;20044;-63
2022/05/02 06:24:36;;;;;;;32.63;24.20;;;;;;;10.04;63.92;101942.84;5029527;28;20049;-63
2022/05/02 06:27:03;;;;;;;32.92;25.55;;;;;;;10.22;63.85;101944.69;5030231;28;20021;-63
2022/05/02 06:29:29;;;;;;;30.85;26.85;;;;;;;10.33;63.17;101935.41;5044683;28;20451;-63
2022/05/02 06:31:58;;;;;;;30.17;24.17;;;;;;;10.36;62.05;101933.47;5035410;28;20517;-63
2022/05/02 06:34:31;;;;;;;32.08;24.67;;;;;;;10.55;62.11;101938.81;5053669;28;20439;-62
2022/05/02 06:37:10;;;;;;;27.05;22.80;;;;;;;10.61;61.40;101929.69;5026407;28;20099;-63
2022/05/02 06:40:23;;;;;;;30.20;23.98;;;;;;;10.80;61.54;101938.56;5030692;28;20087;-63
2022/05/02 06:43:11;;;;;;;32.30;23.83;;;;;;;10.96;61.14;101937.84;4975838;28;20117;-63
2022/05/02 06:45:55;;;;;;;27.35;23.67;;;;;;;11.02;60.38;101942.88;5031353;28;20025;-63
2022/05/02 06:48:23;;;;;;;27.73;23.95;;;;;;;11.17;60.36;101941.28;5031243;28;20033;-63
2022/05/02 06:51:02;;;;;;;29.27;23.33;;;;;;;11.30;60.47;101945.09;5033398;28;20440;-63
2022/05/02 06:53:59;;;;;;;28.05;23.40;;;;;;;11.47;60.38;101945.16;5029582;28;20032;-63
2022/05/02 06:56:57;;;;;;;28.02;22.77;;;;;;;11.60;59.65;101940.91;5032905;28;20078;-63
2022/05/02 06:59:39;;;;;;;31.15;23.92;;;;;;;11.68;59.52;101943.22;5036635;28;20041;-63
2022/05/02 07:02:19;;;;;;;30.15;23.67;;;;;;;11.76;58.83;101934.81;5039924;28;20033;-63
2022/05/02 07:04:52;;;;;;;33.08;23.05;;;;;;;11.89;58.58;101938.63;5044557;28;20556;-62
2022/05/02 07:07:38;;;;;;;24.35;21.20;;;;;;;12.07;58.15;101928.81;5035782;28;20408;-63
2022/05/02 07:10:12;;;;;;;23.23;20.75;;;;;;;12.18;57.28;101937.13;5038038;28;20033;-63
2022/05/02 07:13:05;;;;;;;22.35;19.38;;;;;;;12.34;56.12;101930.97;5042694;28;20029;-63
2022/05/02 07:15:52;;;;;;;22.30;19.45;;;;;;;12.44;55.70;101941.09;5051625;28;20025;-63
2022/05/02 07:18:30;;;;;;;23.27;19.33;;;;;;;12.54;55.85;101937.91;5034030;28;20040;-63
2022/05/02 07:21:17;;;;;;;25.52;19.13;;;;;;;12.68;54.97;101935.38;5032740;28;20021;-62
2022/05/02 07:24:11;;;;;;;27.55;20.92;;;;;;;12.82;55.65;101942.59;5033006;28;20136;-63
2022/05/02 07:26:38;;;;;;;23.77;18.85;;;;;;;12.85;54.04;101927.31;5033248;28;20033;-63
2022/05/02 07:29:08;;;;;;;21.50;18.45;;;;;;;13.09;54.32;101937.56;5032982;28;20095;-63
2022/05/02 07:31:34;;;;;;;25.40;19.77;;;;;;;13.20;53.81;101929.78;5031455;28;20021;-63
2022/05/02 07:34:01;;;;;;;24.40;19.00;;;;;;;13.33;53.40;101935.34;5032761;28;20079;-63
2022/05/02 07:36:31;;;;;;;28.10;19.27;;;;;;;13.44;52.88;101930.22;5035271;28;20438;-63
2022/05/02 07:39:08;;;;;;;20.13;17.58;;;;;;;13.56;52.17;101923.28;5031723;28;20241;-63
2022/05/02 07:41:35;;;;;;;19.95;17.92;;;;;;;13.66;51.84;101931.66;5032879;28;20041;-63
2022/05/02 07:44:12;;;;;;;20.20;17.10;;;;;;;13.75;51.42;101933.78;5032838;28;20033;-63
2022/05/02 07:46:37;;;;;;;20.70;15.70;;;;;;;13.86;51.10;101931.34;5032765;28;20117;-63
2022/05/02 07:49:05;;;;;;;23.90;17.63;;;;;;;14.06;50.72;101931.00;5032448;28;20060;-63
2022/05/02 07:51:32;;;;;;;22.40;17.98;;;;;;;14.03;50.53;101923.16;5033048;28;20017;-63
2022/05/02 07:53:59;;;;;;;21.15;17.10;;;;;;;14.14;50.02;101933.19;5031680;28;20029;-63
2022/05/02 07:56:27;;;;;;;21.85;18.13;;;;;;;14.31;49.59;101933.03;5031780;28;20025;-63
2022/05/02 07:58:54;;;;;;;18.75;15.80;;;;;;;14.44;48.29;101935.84;5031443;28;20025;-63
2022/05/02 08:01:24;;;;;;;19.38;16.02;;;;;;;14.49;48.07;101931.03;5031220;28;20072;-63
2022/05/02 08:03:50;;;;;;;18.45;16.55;;;;;;;14.66;47.71;101931.84;5045907;28;20556;-63
2022/05/02 08:06:19;;;;;;;20.58;16.13;;;;;;;14.77;47.16;101937.38;5047791;28;20491;-63
2022/05/02 08:09:10;;;;;;;21.67;16.02;;;;;;;14.88;46.57;101937.56;5038035;28;20124;-63
2022/05/02 08:12:07;;;;;;;17.60;15.77;;;;;;;15.03;47.51;101927.69;5035695;28;20030;-63
2022/05/02 08:14:42;;;;;;;22.60;15.77;;;;;;;15.13;47.15;101928.81;5046520;28;20032;-63
2022/05/02 08:17:33;;;;;;;17.15;13.80;;;;;;;15.31;45.86;101933.94;5032498;28;20463;-63
2022/05/02 08:20:15;;;;;;;16.35;14.65;;;;;;;15.43;45.34;101933.97;5047034;28;20072;-63
2022/05/02 08:29:11;;;;;;;16.02;12.73;;;;;;;15.83;42.93;101928.66;5031177;28;20044;-64
2022/05/02 08:32:07;;;;;;;17.23;13.95;;;;;;;15.96;42.66;101931.34;5046559;28;20473;-63
2022/05/02 08:34:39;;;;;;;16.80;13.85;;;;;;;15.97;42.23;101934.88;5010621;28;20064;-64
2022/05/02 08:37:17;;;;;;;16.33;14.00;;;;;;;16.13;42.68;101932.88;5030834;28;20408;-64
2022/05/02 08:39:59;;;;;;;22.55;15.93;;;;;;;16.19;42.32;101931.59;5031484;28;20100;-64
2022/05/02 08:42:49;;;;;;;17.42;13.32;;;;;;;16.24;42.63;101935.69;5048341;28;20037;-64
2022/05/02 08:45:42;;;;;;;18.20;13.38;;;;;;;16.35;42.00;101935.81;5031151;28;20111;-63
2022/05/02 08:48:42;;;;;;;16.05;13.32;;;;;;;16.44;42.61;101928.03;5031110;28;20034;-64
2022/05/02 08:51:32;;;;;;;16.63;12.90;;;;;;;16.47;41.17;101922.44;5031627;28;20086;-64
2022/05/02 08:54:22;;;;;;;16.00;13.57;;;;;;;16.60;42.00;101920.63;5031360;28;20491;-64
2022/05/02 08:57:15;;;;;;;17.60;13.93;;;;;;;16.57;41.30;101928.91;5031584;28;20067;-64
2022/05/02 09:00:06;;;;;;;14.77;12.38;;;;;;;16.71;41.87;101922.56;5032101;28;20024;-63
2022/05/02 09:03:06;;;;;;;14.55;13.05;;;;;;;16.85;41.02;101921.56;5027939;28;20436;-64
2022/05/02 09:05:58;;;;;;;14.05;12.50;;;;;;;16.97;39.71;101926.94;5025104;28;20033;-64
2022/05/02 09:08:29;;;;;;;14.13;12.20;;;;;;;16.93;39.04;101911.97;5026928;28;20067;-64
2022/05/02 09:11:31;;;;;;;16.25;13.50;;;;;;;17.07;39.76;101916.38;5031330;28;20033;-64
2022/05/02 09:14:21;;;;;;;15.65;13.05;;;;;;;17.21;39.26;101912.66;5031000;28;20032;-64
2022/05/02 09:16:58;;;;;;;14.38;12.50;;;;;;;17.26;39.89;101915.84;5031369;28;20037;-64
2022/05/02 09:19:57;;;;;;;17.42;13.50;;;;;;;17.34;38.36;101916.13;5031033;28;20033;-64
2022/05/02 09:22:45;;;;;;;14.75;10.50;;;;;;;17.57;36.92;101913.56;5031108;28;20027;-63
2022/05/02 09:25:11;;;;;;;12.98;9.82;;;;;;;17.72;35.67;101915.09;5031025;28;20095;-64
2022/05/02 09:27:52;;;;;;;12.18;10.38;;;;;;;17.88;34.90;101915.69;5031027;28;20419;-63
2022/05/02 09:30:55;;;;;;;13.60;11.98;;;;;;;17.99;36.88;101914.81;5031148;28;20036;-63
2022/05/02 09:33:26;;;;;;;15.85;11.52;;;;;;;17.96;36.55;101914.22;5029181;28;20466;-63
2022/05/02 09:35:53;;;;;;;19.50;13.32;;;;;;;18.03;36.73;101905.56;5030676;28;20469;-63
2022/05/02 09:38:24;;;;;;;13.55;12.25;;;;;;;18.20;36.83;101903.38;5030952;28;20026;-63
2022/05/02 09:41:00;;;;;;;15.15;11.80;;;;;;;18.25;36.01;101903.88;5030860;28;20029;-64
2022/05/02 09:49:33;;;;;;;12.55;10.98;;;;;;;18.63;34.86;101898.13;5030651;28;20041;-64
2022/05/02 09:52:03;;;;;;;12.60;11.20;;;;;;;18.69;34.69;101894.94;5046346;28;20060;-64
2022/05/02 09:57:41;;;;;;;14.32;12.50;;;;;;;18.80;34.67;101891.41;5031117;28;20112;-64
2022/05/02 10:02:58;;;;;;;14.38;11.63;;;;;;;19.03;34.28;101885.00;5030664;28;20041;-64
2022/05/02 10:05:52;;;;;;;12.52;11.23;;;;;;;19.08;33.99;101887.28;5030801;28;20031;-64
2022/05/02 10:08:41;;;;;;;13.23;11.40;;;;;;;19.31;33.57;101889.94;5030298;28;20049;-64
2022/05/02 10:11:14;;;;;;;;;;;;;;;19.58;33.65;101889.44;5030901;28;20112;-64
2022/05/02 10:14:00;;;;;;;13.50;11.10;;;;;;;19.48;33.86;101886.69;5030139;28;19921;-64
2022/05/02 10:16:40;;;;;;;13.43;10.60;;;;;;;19.58;34.59;101890.28;5031042;28;20029;-64
2022/05/02 10:19:15;;;;;;;16.65;10.98;;;;;;;19.61;33.54;101884.63;5045498;28;20029;-64
2022/05/02 10:22:02;;;;;;;11.90;10.27;;;;;;;19.72;34.05;101879.22;5030636;28;20025;-64
2022/05/02 10:25:09;;;;;;;13.77;10.57;;;;;;;19.86;32.79;101888.00;5049887;28;20041;-64
2022/05/02 10:28:04;;;;;;;11.88;10.02;;;;;;;19.88;32.51;101886.00;5034194;28;20037;-64
2022/05/02 10:30:54;;;;;;;11.32;9.77;;;;;;;20.02;32.93;101880.25;5033017;28;20017;-64
2022/05/02 10:33:34;;;;;;;12.57;9.75;;;;;;;20.16;32.48;101879.91;5049470;28;20154;-64
2022/05/02 10:36:00;;;;;;;10.82;9.55;;;;;;;20.11;30.25;101873.22;5034298;28;20104;-64
2022/05/02 10:38:32;;;;;;;11.38;9.32;;;;;;;20.23;31.18;101879.38;5049482;28;20044;-65
2022/05/02 10:41:11;;;;;;;15.40;10.38;;;;;;;20.26;30.92;101873.72;5033644;28;20083;-64
2022/05/02 10:43:44;;;;;;;12.48;10.13;;;;;;;20.03;31.64;101873.88;5031697;28;20120;-65
2022/05/02 10:46:12;;;;;;;13.80;9.95;;;;;;;19.94;31.51;101864.75;5049612;28;20039;-65
2022/05/02 10:48:44;;;;;;;10.02;8.85;;;;;;;20.11;31.85;101860.53;5048745;28;20025;-65
2022/05/02 10:51:26;;;;;;;12.55;9.90;;;;;;;20.45;31.47;101856.75;5032989;28;20393;-65
2022/05/02 10:54:00;;;;;;;10.40;9.30;;;;;;;20.58;32.22;101849.25;5033671;28;20484;-65
2022/05/02 10:56:43;;;;;;;12.23;8.65;;;;;;;20.86;30.77;101855.75;5034316;28;20032;-64
2022/05/02 10:59:14;;;;;;;10.35;9.10;;;;;;;20.69;30.37;101851.00;5033633;28;20135;-65
2022/05/02 11:02:05;;;;;;;12.50;9.25;;;;;;;21.03;31.36;101849.66;5032459;28;20468;-65
2022/05/02 11:05:08;;;;;;;14.85;9.20;;;;;;;21.28;29.93;101852.81;5033409;28;20106;-65
2022/05/02 11:07:44;;;;;;;13.27;8.80;;;;;;;21.13;30.09;101846.09;4992379;28;20038;-65
2022/05/02 11:10:13;;;;;;;9.98;8.98;;;;;;;21.18;28.78;101843.81;5028137;28;20083;-65
2022/05/02 11:12:59;;;;;;;13.23;8.95;;;;;;;21.37;29.01;101849.28;5033740;28;20342;-64
2022/05/02 11:15:30;;;;;;;15.50;10.63;;;;;;;21.32;28.98;101849.69;5033519;28;20468;-65
2022/05/02 11:20:41;;;;;;;11.10;9.57;;;;;;;21.55;30.32;101847.53;5048343;28;20029;-65
2022/05/02 11:21:16;;;;;;;14.65;10.15;;;;;;;21.37;29.75;101827.63;5033365;28;20030;-65
2022/05/02 11:23:50;;;;;;;10.38;9.15;;;;;;;21.59;30.14;101837.31;5033126;28;20080;-65
2022/05/02 11:26:40;;;;;;;10.35;9.25;;;;;;;21.86;29.81;101836.53;5033463;28;20065;-65
2022/05/02 11:29:37;;;;;;;10.57;9.10;;;;;;;22.09;29.59;101825.31;5048099;28;20025;-66
2022/05/02 11:32:18;;;;;;;12.50;9.35;;;;;;;22.21;28.99;101821.50;5048736;28;20072;-65
2022/05/02 11:34:59;;;;;;;11.68;8.32;;;;;;;22.51;27.92;101814.06;5047917;28;20120;-65
2022/05/02 11:37:37;;;;;;;9.65;8.68;;;;;;;22.98;26.90;101813.94;5033272;28;20021;-65
2022/05/02 11:40:15;;;;;;;9.87;8.13;;;;;;;23.37;26.69;101827.19;5032536;28;20373;-65
2022/05/02 11:42:48;;;;;;;9.88;8.88;;;;;;;23.54;25.57;101826.31;5030702;28;20034;-66
2022/05/02 11:45:17;;;;;;;10.23;9.07;;;;;;;23.85;25.20;101821.28;5032712;28;20064;-65
2022/05/02 11:47:54;;;;;;;12.85;8.25;;;;;;;24.32;25.62;101820.84;5048702;28;20029;-65
2022/05/02 11:50:44;;;;;;;13.75;8.80;;;;;;;24.60;24.25;101815.22;5049769;28;20118;-65
2022/05/02 11:53:13;;;;;;;11.88;8.50;;;;;;;24.89;24.18;101803.91;5049031;28;20478;-65
2022/05/02 11:55:40;;;;;;;13.77;8.45;;;;;;;25.28;24.34;101790.53;5050308;28;20032;-65
2022/05/02 11:58:23;;;;;;;9.90;7.90;;;;;;;25.89;24.02;101812.78;5050402;28;20037;-65
2022/05/02 12:00:53;;;;;;;11.18;8.82;;;;;;;25.95;23.13;101814.81;5050295;28;20052;-65
2022/05/02 12:03:33;;;;;;;11.05;8.90;;;;;;;26.35;23.80;101806.66;5049610;28;20190;-66
2022/05/02 12:06:09;;;;;;;10.75;8.73;;;;;;;26.94;22.67;101802.47;5032469;28;20048;-66
2022/05/02 12:08:37;;;;;;;14.02;8.43;;;;;;;27.29;20.94;101812.97;5033568;28;20039;-66
2022/05/02 12:11:14;;;;;;;14.77;8.85;;;;;;;27.72;20.50;101810.53;5033530;28;20078;-66